sensor_id;sensor_type;location;lat;lon;timestamp;pressure;altitude;pressure_sealevel;temperature;humidity
64053;BME280;50299;49.524;8.536;2023-02-13T00:00:29;102602.44;;;-0.33;88.80
64053;BME280;50299;49.524;8.536;2023-02-13T00:03:03;102596.56;;;-0.36;88.04
64053;BME280;50299;49.524;8.536;2023-02-13T00:05:30;102594.09;;;-0.24;87.71
64053;BME280;50299;49.524;8.536;2023-02-13T00:07:58;102601.53;;;-0.53;78.93
64053;BME280;50299;49.524;8.536;2023-02-13T00:10:31;102596.22;;;-0.68;81.32
64053;BME280;50299;49.524;8.536;2023-02-13T00:13:04;102592.19;;;-0.31;90.68
64053;BME280;50299;49.524;8.536;2023-02-13T00:15:30;102596.75;;;-0.38;85.33
64053;BME280;50299;49.524;8.536;2023-02-13T00:18:04;102590.25;;;-0.43;85.21
64053;BME280;50299;49.524;8.536;2023-02-13T00:20:30;102585.44;;;-0.48;85.64
64053;BME280;50299;49.524;8.536;2023-02-13T00:23:03;102581.84;;;-0.55;86.88
64053;BME280;50299;49.524;8.536;2023-02-13T00:25:37;102580.53;;;-1.35;80.16
64053;BME280;50299;49.524;8.536;2023-02-13T00:28:10;102577.84;;;-1.29;84.10
64053;BME280;50299;49.524;8.536;2023-02-13T00:30:36;102575.63;;;-0.90;91.51
64053;BME280;50299;49.524;8.536;2023-02-13T00:33:09;102586.34;;;-0.75;87.10
64053;BME280;50299;49.524;8.536;2023-02-13T00:35:42;102581.13;;;-0.77;90.54
64053;BME280;50299;49.524;8.536;2023-02-13T00:38:15;102581.41;;;-0.04;100.00
64053;BME280;50299;49.524;8.536;2023-02-13T00:40:48;102576.00;;;0.22;98.41
64053;BME280;50299;49.524;8.536;2023-02-13T00:43:14;102572.22;;;0.04;88.65
64053;BME280;50299;49.524;8.536;2023-02-13T00:45:47;102576.00;;;-0.52;82.48
64053;BME280;50299;49.524;8.536;2023-02-13T00:48:13;102584.94;;;-0.99;77.94
64053;BME280;50299;49.524;8.536;2023-02-13T00:50:40;102576.41;;;-1.03;83.25
64053;BME280;50299;49.524;8.536;2023-02-13T00:53:13;102581.50;;;-1.43;83.23
64053;BME280;50299;49.524;8.536;2023-02-13T00:55:39;102571.09;;;-1.11;90.52
64053;BME280;50299;49.524;8.536;2023-02-13T00:58:06;102583.13;;;-1.20;82.14
64053;BME280;50299;49.524;8.536;2023-02-13T01:00:39;102584.94;;;-1.56;80.26
64053;BME280;50299;49.524;8.536;2023-02-13T01:03:06;102582.50;;;-1.72;82.35
64053;BME280;50299;49.524;8.536;2023-02-13T01:05:33;102586.81;;;-2.20;79.38
64053;BME280;50299;49.524;8.536;2023-02-13T01:08:06;102578.28;;;-2.54;82.02
64053;BME280;50299;49.524;8.536;2023-02-13T01:10:32;102576.72;;;-2.78;83.67
64053;BME280;50299;49.524;8.536;2023-02-13T01:13:07;102581.69;;;-3.11;84.14
64053;BME280;50299;49.524;8.536;2023-02-13T01:15:34;102584.84;;;-3.07;84.97
64053;BME280;50299;49.524;8.536;2023-02-13T01:18:21;102581.69;;;-3.11;86.32
64053;BME280;50299;49.524;8.536;2023-02-13T01:21:02;102582.25;;;-3.00;88.53
64053;BME280;50299;49.524;8.536;2023-02-13T01:23:37;102576.63;;;-2.55;91.08
64053;BME280;50299;49.524;8.536;2023-02-13T01:26:10;102584.59;;;-2.32;88.14
64053;BME280;50299;49.524;8.536;2023-02-13T01:28:44;102582.88;;;-2.69;81.62
64053;BME280;50299;49.524;8.536;2023-02-13T01:31:11;102578.91;;;-2.88;82.97
64053;BME280;50299;49.524;8.536;2023-02-13T01:33:43;102576.53;;;-3.73;85.81
64053;BME280;50299;49.524;8.536;2023-02-13T01:36:16;102578.66;;;-3.83;86.20
64053;BME280;50299;49.524;8.536;2023-02-13T01:38:55;102584.22;;;-3.62;87.48
64053;BME280;50299;49.524;8.536;2023-02-13T01:41:22;102569.41;;;-3.51;89.25
64053;BME280;50299;49.524;8.536;2023-02-13T01:43:58;102571.75;;;-3.71;89.52
64053;BME280;50299;49.524;8.536;2023-02-13T01:46:41;102569.91;;;-3.18;93.02
64053;BME280;50299;49.524;8.536;2023-02-13T01:49:22;102572.91;;;-3.28;87.72
64053;BME280;50299;49.524;8.536;2023-02-13T01:51:52;102570.56;;;-3.31;86.31
64053;BME280;50299;49.524;8.536;2023-02-13T01:54:29;102568.78;;;-3.23;84.76
64053;BME280;50299;49.524;8.536;2023-02-13T01:57:01;102574.31;;;-3.17;85.26
64053;BME280;50299;49.524;8.536;2023-02-13T02:00:05;102574.97;;;-3.00;84.07
64053;BME280;50299;49.524;8.536;2023-02-13T02:02:36;102573.19;;;-2.93;84.73
64053;BME280;50299;49.524;8.536;2023-02-13T02:05:12;102566.66;;;-2.33;92.84
64053;BME280;50299;49.524;8.536;2023-02-13T02:07:39;102575.53;;;-1.60;98.40
64053;BME280;50299;49.524;8.536;2023-02-13T02:10:17;102567.72;;;-1.91;86.61
64053;BME280;50299;49.524;8.536;2023-02-13T02:13:00;102571.84;;;-1.95;90.39
64053;BME280;50299;49.524;8.536;2023-02-13T02:15:37;102577.25;;;-1.73;90.62
64053;BME280;50299;49.524;8.536;2023-02-13T02:18:23;102577.47;;;-1.75;84.20
64053;BME280;50299;49.524;8.536;2023-02-13T02:21:13;102571.31;;;-1.62;90.67
64053;BME280;50299;49.524;8.536;2023-02-13T02:24:11;102576.06;;;-2.14;78.60
64053;BME280;50299;49.524;8.536;2023-02-13T02:27:33;102569.56;;;-2.34;84.62
64053;BME280;50299;49.524;8.536;2023-02-13T02:36:19;102565.09;;;-1.84;89.52
64053;BME280;50299;49.524;8.536;2023-02-13T02:39:07;102561.69;;;-2.29;83.12
64053;BME280;50299;49.524;8.536;2023-02-13T02:42:06;102558.13;;;-2.66;83.42
64053;BME280;50299;49.524;8.536;2023-02-13T02:44:55;102557.84;;;-1.98;95.42
64053;BME280;50299;49.524;8.536;2023-02-13T02:47:27;102561.19;;;-1.75;90.85
64053;BME280;50299;49.524;8.536;2023-02-13T02:50:30;102561.59;;;-2.21;86.43
64053;BME280;50299;49.524;8.536;2023-02-13T02:53:21;102567.31;;;-1.66;93.29
64053;BME280;50299;49.524;8.536;2023-02-13T02:56:14;102564.09;;;-2.19;78.48
64053;BME280;50299;49.524;8.536;2023-02-13T02:58:50;102560.53;;;-2.20;84.28
64053;BME280;50299;49.524;8.536;2023-02-13T03:01:36;102565.94;;;-2.41;80.14
64053;BME280;50299;49.524;8.536;2023-02-13T03:04:35;102564.56;;;-1.73;96.43
64053;BME280;50299;49.524;8.536;2023-02-13T03:07:28;102565.03;;;-0.79;100.00
64053;BME280;50299;49.524;8.536;2023-02-13T03:09:57;102559.66;;;0.09;100.00
64053;BME280;50299;49.524;8.536;2023-02-13T03:13:05;102562.34;;;-0.11;99.00
64053;BME280;50299;49.524;8.536;2023-02-13T03:16:00;102569.03;;;-0.20;96.06
64053;BME280;50299;49.524;8.536;2023-02-13T03:18:55;102579.28;;;-0.70;89.65
64053;BME280;50299;49.524;8.536;2023-02-13T03:21:55;102580.59;;;-1.22;85.01
64053;BME280;50299;49.524;8.536;2023-02-13T03:25:13;102587.66;;;-1.56;86.66
64053;BME280;50299;49.524;8.536;2023-02-13T03:28:00;102585.78;;;-1.55;86.36
64053;BME280;50299;49.524;8.536;2023-02-13T03:31:11;102582.94;;;-0.91;97.93
64053;BME280;50299;49.524;8.536;2023-02-13T03:34:06;102582.88;;;-1.25;84.37
64053;BME280;50299;49.524;8.536;2023-02-13T03:37:06;102586.84;;;-0.65;96.81
64053;BME280;50299;49.524;8.536;2023-02-13T03:40:16;102587.91;;;0.08;100.00
64053;BME280;50299;49.524;8.536;2023-02-13T03:43:03;102590.88;;;0.46;100.00
64053;BME280;50299;49.524;8.536;2023-02-13T03:45:37;102590.25;;;0.58;100.00
64053;BME280;50299;49.524;8.536;2023-02-13T03:48:31;102589.19;;;0.79;100.00
64053;BME280;50299;49.524;8.536;2023-02-13T03:51:25;102597.75;;;0.36;96.84
64053;BME280;50299;49.524;8.536;2023-02-13T03:54:02;102599.69;;;-0.39;86.08
64053;BME280;50299;49.524;8.536;2023-02-13T03:56:39;102602.25;;;-1.57;76.33
64053;BME280;50299;49.524;8.536;2023-02-13T03:59:34;102598.44;;;-1.62;85.11
64053;BME280;50299;49.524;8.536;2023-02-13T04:02:09;102605.25;;;-1.73;82.94
64053;BME280;50299;49.524;8.536;2023-02-13T04:04:59;102604.91;;;-2.06;79.95
64053;BME280;50299;49.524;8.536;2023-02-13T04:07:29;102602.00;;;-2.05;84.09
64053;BME280;50299;49.524;8.536;2023-02-13T04:10:07;102595.59;;;-2.18;80.49
64053;BME280;50299;49.524;8.536;2023-02-13T04:12:36;102592.00;;;-2.40;80.69
64053;BME280;50299;49.524;8.536;2023-02-13T04:15:15;102592.75;;;-2.46;81.71
64053;BME280;50299;49.524;8.536;2023-02-13T04:18:04;102589.59;;;-2.65;82.34
64053;BME280;50299;49.524;8.536;2023-02-13T04:20:39;102595.28;;;-3.19;77.51
64053;BME280;50299;49.524;8.536;2023-02-13T04:23:06;102588.97;;;-3.11;81.15
64053;BME280;50299;49.524;8.536;2023-02-13T04:25:38;102593.91;;;-2.85;85.95
64053;BME280;50299;49.524;8.536;2023-02-13T04:28:11;102591.50;;;-2.80;83.55
64053;BME280;50299;49.524;8.536;2023-02-13T04:30:38;102590.53;;;-2.58;87.81
64053;BME280;50299;49.524;8.536;2023-02-13T04:33:05;102596.25;;;-2.67;79.76
64053;BME280;50299;49.524;8.536;2023-02-13T04:35:37;102589.31;;;-2.55;86.27
64053;BME280;50299;49.524;8.536;2023-02-13T04:38:10;102586.44;;;-2.17;89.13
64053;BME280;50299;49.524;8.536;2023-02-13T04:40:46;102588.91;;;-1.80;96.17
64053;BME280;50299;49.524;8.536;2023-02-13T04:43:12;102594.81;;;-2.12;83.81
64053;BME280;50299;49.524;8.536;2023-02-13T04:45:38;102586.88;;;-2.14;88.78
64053;BME280;50299;49.524;8.536;2023-02-13T04:48:12;102581.59;;;-2.00;86.09
64053;BME280;50299;49.524;8.536;2023-02-13T04:50:38;102585.81;;;-1.77;90.33
64053;BME280;50299;49.524;8.536;2023-02-13T04:53:04;102586.09;;;-1.86;84.78
64053;BME280;50299;49.524;8.536;2023-02-13T04:55:38;102578.88;;;-1.79;87.82
64053;BME280;50299;49.524;8.536;2023-02-13T04:58:04;102582.84;;;-1.54;92.01
64053;BME280;50299;49.524;8.536;2023-02-13T05:00:37;102582.06;;;-0.98;99.96
64053;BME280;50299;49.524;8.536;2023-02-13T05:03:05;102581.06;;;-0.42;100.00
64053;BME280;50299;49.524;8.536;2023-02-13T05:05:40;102586.19;;;-0.06;100.00
64053;BME280;50299;49.524;8.536;2023-02-13T05:08:07;102591.66;;;0.07;100.00
64053;BME280;50299;49.524;8.536;2023-02-13T05:10:39;102584.94;;;0.03;99.35
64053;BME280;50299;49.524;8.536;2023-02-13T05:13:12;102597.31;;;-0.97;85.02
64053;BME280;50299;49.524;8.536;2023-02-13T05:15:47;102597.03;;;-2.01;77.80
64053;BME280;50299;49.524;8.536;2023-02-13T05:18:27;102597.88;;;-2.37;84.15
64053;BME280;50299;49.524;8.536;2023-02-13T05:20:53;102590.44;;;-2.49;82.12
64053;BME280;50299;49.524;8.536;2023-02-13T05:23:45;102591.00;;;-2.18;91.42
64053;BME280;50299;49.524;8.536;2023-02-13T05:26:16;102592.44;;;-1.79;93.97
64053;BME280;50299;49.524;8.536;2023-02-13T05:28:42;102591.16;;;-1.83;94.76
64053;BME280;50299;49.524;8.536;2023-02-13T05:31:34;102589.66;;;-0.80;100.00
64053;BME280;50299;49.524;8.536;2023-02-13T05:34:00;102593.34;;;0.08;100.00
64053;BME280;50299;49.524;8.536;2023-02-13T05:36:34;102596.94;;;0.49;100.00
64053;BME280;50299;49.524;8.536;2023-02-13T05:39:00;102595.16;;;-0.19;99.20
64053;BME280;50299;49.524;8.536;2023-02-13T05:41:26;102599.16;;;-0.63;95.87
64053;BME280;50299;49.524;8.536;2023-02-13T05:43:59;102591.56;;;-1.09;93.02
64053;BME280;50299;49.524;8.536;2023-02-13T05:46:32;102596.47;;;-0.97;94.48
64053;BME280;50299;49.524;8.536;2023-02-13T05:49:06;102590.72;;;-1.09;94.65
64053;BME280;50299;49.524;8.536;2023-02-13T05:51:33;102585.81;;;-0.99;93.92
64053;BME280;50299;49.524;8.536;2023-02-13T05:53:59;102579.09;;;-1.31;90.10
64053;BME280;50299;49.524;8.536;2023-02-13T05:56:32;102587.16;;;-1.87;76.22
64053;BME280;50299;49.524;8.536;2023-02-13T05:58:58;102586.47;;;-2.32;86.92
64053;BME280;50299;49.524;8.536;2023-02-13T06:01:24;102577.94;;;-1.15;100.00
64053;BME280;50299;49.524;8.536;2023-02-13T06:03:59;102588.22;;;-0.83;100.00
64053;BME280;50299;49.524;8.536;2023-02-13T06:06:32;102581.00;;;-1.25;95.78
64053;BME280;50299;49.524;8.536;2023-02-13T06:08:58;102582.63;;;-1.80;87.73
64053;BME280;50299;49.524;8.536;2023-02-13T06:11:32;102588.94;;;-2.16;85.49
64053;BME280;50299;49.524;8.536;2023-02-13T06:13:58;102589.00;;;-2.31;84.80
64053;BME280;50299;49.524;8.536;2023-02-13T06:16:38;102586.44;;;-2.17;92.80
64053;BME280;50299;49.524;8.536;2023-02-13T06:19:18;102596.31;;;-0.89;100.00
64053;BME280;50299;49.524;8.536;2023-02-13T06:21:52;102588.22;;;-0.83;100.00
64053;BME280;50299;49.524;8.536;2023-02-13T06:24:18;102601.34;;;-1.14;94.04
64053;BME280;50299;49.524;8.536;2023-02-13T06:26:44;102596.19;;;-1.80;86.79
64053;BME280;50299;49.524;8.536;2023-02-13T06:29:18;102601.63;;;-2.02;90.81
64053;BME280;50299;49.524;8.536;2023-02-13T06:31:51;102600.38;;;-1.99;93.39
64053;BME280;50299;49.524;8.536;2023-02-13T06:34:17;102596.19;;;-1.80;95.04
64053;BME280;50299;49.524;8.536;2023-02-13T06:36:44;102598.06;;;-1.81;93.34
64053;BME280;50299;49.524;8.536;2023-02-13T06:39:17;102595.34;;;-1.59;98.46
64053;BME280;50299;49.524;8.536;2023-02-13T06:41:50;102608.97;;;-1.74;90.84
64053;BME280;50299;49.524;8.536;2023-02-13T06:44:23;102603.78;;;-0.98;100.00
64053;BME280;50299;49.524;8.536;2023-02-13T06:46:56;102606.31;;;0.06;100.00
64053;BME280;50299;49.524;8.536;2023-02-13T06:49:22;102606.38;;;0.33;100.00
64053;BME280;50299;49.524;8.536;2023-02-13T06:51:49;102608.38;;;-0.03;100.00
64053;BME280;50299;49.524;8.536;2023-02-13T06:54:22;102620.69;;;-0.96;87.93
64053;BME280;50299;49.524;8.536;2023-02-13T06:57:06;102615.63;;;-1.55;86.85
64053;BME280;50299;49.524;8.536;2023-02-13T06:59:40;102616.22;;;-1.81;86.90
64053;BME280;50299;49.524;8.536;2023-02-13T07:02:08;102616.38;;;-1.61;92.51
64053;BME280;50299;49.524;8.536;2023-02-13T07:04:35;102617.94;;;-1.52;94.42
64053;BME280;50299;49.524;8.536;2023-02-13T07:07:08;102620.28;;;-1.70;86.82
64053;BME280;50299;49.524;8.536;2023-02-13T07:09:34;102613.13;;;-1.57;93.23
64053;BME280;50299;49.524;8.536;2023-02-13T07:12:02;102613.09;;;-1.35;96.13
64053;BME280;50299;49.524;8.536;2023-02-13T07:14:43;102614.97;;;-1.08;96.90
64053;BME280;50299;49.524;8.536;2023-02-13T07:17:23;102624.50;;;-0.90;94.80
64053;BME280;50299;49.524;8.536;2023-02-13T07:20:00;102623.34;;;-0.33;100.00
64053;BME280;50299;49.524;8.536;2023-02-13T07:22:27;102621.03;;;-0.36;94.95
64053;BME280;50299;49.524;8.536;2023-02-13T07:24:53;102618.00;;;-0.07;100.00
64053;BME280;50299;49.524;8.536;2023-02-13T07:27:26;102624.38;;;0.74;100.00
64053;BME280;50299;49.524;8.536;2023-02-13T07:29:59;102616.50;;;1.50;100.00
64053;BME280;50299;49.524;8.536;2023-02-13T07:32:32;102626.31;;;2.09;100.00
64053;BME280;50299;49.524;8.536;2023-02-13T07:35:00;102619.84;;;1.97;100.00
64053;BME280;50299;49.524;8.536;2023-02-13T07:37:29;102613.81;;;1.43;95.27
64053;BME280;50299;49.524;8.536;2023-02-13T07:40:04;102621.78;;;1.18;95.45
64053;BME280;50299;49.524;8.536;2023-02-13T07:42:34;102623.47;;;1.19;97.91
64053;BME280;50299;49.524;8.536;2023-02-13T07:45:07;102620.94;;;1.18;92.53
64053;BME280;50299;49.524;8.536;2023-02-13T07:47:40;102615.94;;;1.08;90.12
64053;BME280;50299;49.524;8.536;2023-02-13T07:50:08;102630.84;;;0.99;87.44
64053;BME280;50299;49.524;8.536;2023-02-13T07:52:41;102629.91;;;1.97;100.00
64053;BME280;50299;49.524;8.536;2023-02-13T07:55:07;102627.25;;;2.22;100.00
64053;BME280;50299;49.524;8.536;2023-02-13T07:57:36;102627.56;;;2.38;100.00
64053;BME280;50299;49.524;8.536;2023-02-13T08:00:12;102631.00;;;3.02;100.00
64053;BME280;50299;49.524;8.536;2023-02-13T08:02:45;102634.88;;;3.75;100.00
64053;BME280;50299;49.524;8.536;2023-02-13T08:05:12;102637.34;;;4.25;100.00
64053;BME280;50299;49.524;8.536;2023-02-13T08:07:39;102630.25;;;4.47;100.00
64053;BME280;50299;49.524;8.536;2023-02-13T08:10:12;102636.38;;;4.61;100.00
64053;BME280;50299;49.524;8.536;2023-02-13T08:13:05;102631.41;;;4.39;100.00
64053;BME280;50299;49.524;8.536;2023-02-13T08:15:46;102628.41;;;4.29;100.00
64053;BME280;50299;49.524;8.536;2023-02-13T08:18:12;102636.31;;;4.37;100.00
64053;BME280;50299;49.524;8.536;2023-02-13T08:20:38;102635.13;;;4.99;100.00
64053;BME280;50299;49.524;8.536;2023-02-13T08:23:11;102628.63;;;5.40;100.00
64053;BME280;50299;49.524;8.536;2023-02-13T08:25:44;102630.78;;;5.38;100.00
64053;BME280;50299;49.524;8.536;2023-02-13T08:28:12;102631.44;;;5.69;100.00
64053;BME280;50299;49.524;8.536;2023-02-13T08:30:39;102640.66;;;6.20;100.00
64053;BME280;50299;49.524;8.536;2023-02-13T08:33:12;102630.81;;;6.07;100.00
64053;BME280;50299;49.524;8.536;2023-02-13T08:35:38;102627.72;;;6.03;100.00
64053;BME280;50299;49.524;8.536;2023-02-13T08:38:05;102635.91;;;6.15;100.00
64053;BME280;50299;49.524;8.536;2023-02-13T08:40:38;102640.09;;;6.18;100.00
64053;BME280;50299;49.524;8.536;2023-02-13T08:43:13;102638.63;;;6.27;99.54
64053;BME280;50299;49.524;8.536;2023-02-13T08:45:39;102623.91;;;6.33;100.00
64053;BME280;50299;49.524;8.536;2023-02-13T08:48:12;102626.69;;;6.21;97.85
64053;BME280;50299;49.524;8.536;2023-02-13T08:50:45;102635.44;;;6.18;93.29
64053;BME280;50299;49.524;8.536;2023-02-13T08:53:11;102629.41;;;6.04;94.38
64053;BME280;50299;49.524;8.536;2023-02-13T08:55:55;102630.66;;;5.85;85.34
64053;BME280;50299;49.524;8.536;2023-02-13T08:58:22;102628.03;;;5.90;88.45
64053;BME280;50299;49.524;8.536;2023-02-13T09:00:55;102625.47;;;5.72;87.59
64053;BME280;50299;49.524;8.536;2023-02-13T09:03:22;102627.13;;;5.73;87.91
64053;BME280;50299;49.524;8.536;2023-02-13T09:05:48;102625.53;;;5.88;93.57
64053;BME280;50299;49.524;8.536;2023-02-13T09:08:21;102638.56;;;5.81;77.77
64053;BME280;50299;49.524;8.536;2023-02-13T09:10:59;102620.13;;;5.53;90.19
64053;BME280;50299;49.524;8.536;2023-02-13T09:13:34;102626.22;;;5.55;90.92
64053;BME280;50299;49.524;8.536;2023-02-13T09:16:06;102622.00;;;5.76;94.71
64053;BME280;50299;49.524;8.536;2023-02-13T09:18:47;102627.38;;;6.00;94.12
64053;BME280;50299;49.524;8.536;2023-02-13T09:21:14;102634.03;;;6.04;86.68
64053;BME280;50299;49.524;8.536;2023-02-13T09:23:41;102632.38;;;6.03;81.05
64053;BME280;50299;49.524;8.536;2023-02-13T09:26:16;102629.72;;;6.08;86.65
64053;BME280;50299;49.524;8.536;2023-02-13T09:28:49;102626.84;;;5.46;64.77
64053;BME280;50299;49.524;8.536;2023-02-13T09:31:45;102630.53;;;5.51;89.65
64053;BME280;50299;49.524;8.536;2023-02-13T09:34:12;102631.63;;;5.79;86.49
64053;BME280;50299;49.524;8.536;2023-02-13T09:36:45;102629.03;;;5.20;69.41
64053;BME280;50299;49.524;8.536;2023-02-13T09:39:18;102633.50;;;4.67;70.16
64053;BME280;50299;49.524;8.536;2023-02-13T09:41:47;102634.81;;;4.65;74.17
64053;BME280;50299;49.524;8.536;2023-02-13T09:44:29;102629.47;;;4.70;74.03
64053;BME280;50299;49.524;8.536;2023-02-13T09:47:08;102630.06;;;4.60;71.07
64053;BME280;50299;49.524;8.536;2023-02-13T09:49:47;102637.72;;;5.17;81.85
64053;BME280;50299;49.524;8.536;2023-02-13T09:52:15;102636.41;;;5.20;72.92
64053;BME280;50299;49.524;8.536;2023-02-13T09:54:42;102639.41;;;5.18;75.83
64053;BME280;50299;49.524;8.536;2023-02-13T09:57:35;102633.31;;;5.16;66.68
64053;BME280;50299;49.524;8.536;2023-02-13T10:00:18;102636.06;;;5.28;64.56
64053;BME280;50299;49.524;8.536;2023-02-13T10:08:24;102630.72;;;4.86;65.50
64053;BME280;50299;49.524;8.536;2023-02-13T10:14:11;102631.66;;;5.67;70.37
64053;BME280;50299;49.524;8.536;2023-02-13T10:19:40;102624.88;;;5.98;67.69
64053;BME280;50299;49.524;8.536;2023-02-13T10:22:33;102629.28;;;5.59;60.55
64053;BME280;50299;49.524;8.536;2023-02-13T10:25:24;102619.22;;;5.88;69.48
64053;BME280;50299;49.524;8.536;2023-02-13T10:27:54;102627.31;;;6.23;65.79
64053;BME280;50299;49.524;8.536;2023-02-13T10:30:33;102627.72;;;6.03;69.57
64053;BME280;50299;49.524;8.536;2023-02-13T10:33:09;102624.63;;;6.28;65.64
64053;BME280;50299;49.524;8.536;2023-02-13T10:38:43;102624.69;;;6.62;71.74
64053;BME280;50299;49.524;8.536;2023-02-13T10:45:05;102620.16;;;7.06;73.24
64053;BME280;50299;49.524;8.536;2023-02-13T10:48:05;102625.66;;;6.89;56.64
64053;BME280;50299;49.524;8.536;2023-02-13T10:50:47;102623.41;;;6.36;54.76
64053;BME280;50299;49.524;8.536;2023-02-13T10:56:24;102616.22;;;5.89;58.05
64053;BME280;50299;49.524;8.536;2023-02-13T10:59:00;102609.44;;;6.37;62.75
64053;BME280;50299;49.524;8.536;2023-02-13T11:01:50;102611.53;;;6.64;64.22
64053;BME280;50299;49.524;8.536;2023-02-13T11:04:18;102609.84;;;6.80;61.96
64053;BME280;50299;49.524;8.536;2023-02-13T11:06:56;102603.53;;;7.18;63.25
64053;BME280;50299;49.524;8.536;2023-02-13T11:09:24;102595.28;;;6.62;55.71
64053;BME280;50299;49.524;8.536;2023-02-13T11:11:51;102593.59;;;6.45;57.39
64053;BME280;50299;49.524;8.536;2023-02-13T11:14:25;102584.13;;;6.35;56.93
64053;BME280;50299;49.524;8.536;2023-02-13T11:17:01;102585.22;;;6.51;57.65
64053;BME280;50299;49.524;8.536;2023-02-13T11:19:38;102583.59;;;6.89;61.46
64053;BME280;50299;49.524;8.536;2023-02-13T11:22:13;102578.19;;;6.77;66.53
64053;BME280;50299;49.524;8.536;2023-02-13T11:24:52;102579.56;;;7.35;56.42
64053;BME280;50299;49.524;8.536;2023-02-13T11:27:32;102590.00;;;7.11;59.23
64053;BME280;50299;49.524;8.536;2023-02-13T11:30:43;102584.34;;;7.23;54.75
64053;BME280;50299;49.524;8.536;2023-02-13T11:33:04;102572.91;;;7.31;58.81
64053;BME280;50299;49.524;8.536;2023-02-13T11:35:37;102576.44;;;7.71;63.75
64053;BME280;50299;49.524;8.536;2023-02-13T11:40:40;102580.44;;;8.12;50.83
64053;BME280;50299;49.524;8.536;2023-02-13T11:43:29;102578.28;;;8.46;61.05
64053;BME280;50299;49.524;8.536;2023-02-13T11:46:06;102569.63;;;8.65;56.99
64053;BME280;50299;49.524;8.536;2023-02-13T11:48:43;102568.94;;;8.84;51.70
64053;BME280;50299;49.524;8.536;2023-02-13T11:51:34;102578.63;;;7.96;49.53
64053;BME280;50299;49.524;8.536;2023-02-13T11:54:35;102565.44;;;7.71;52.36
64053;BME280;50299;49.524;8.536;2023-02-13T11:57:18;102574.88;;;8.02;52.97
64053;BME280;50299;49.524;8.536;2023-02-13T11:59:52;102570.28;;;8.45;56.87
64053;BME280;50299;49.524;8.536;2023-02-13T12:02:28;102569.34;;;8.34;56.54
64053;BME280;50299;49.524;8.536;2023-02-13T12:07:54;102560.22;;;8.28;49.64
64053;BME280;50299;49.524;8.536;2023-02-13T12:10:31;102565.97;;;7.95;49.96
64053;BME280;50299;49.524;8.536;2023-02-13T12:13:20;102557.00;;;8.42;52.19
64053;BME280;50299;49.524;8.536;2023-02-13T12:15:57;102546.66;;;8.96;63.02
64053;BME280;50299;49.524;8.536;2023-02-13T12:18:51;102544.13;;;8.84;49.78
64053;BME280;50299;49.524;8.536;2023-02-13T12:24:41;102549.03;;;8.77;49.60
64053;BME280;50299;49.524;8.536;2023-02-13T12:30:24;102542.25;;;9.00;48.16
64053;BME280;50299;49.524;8.536;2023-02-13T12:33:27;102534.38;;;9.24;49.18
64053;BME280;50299;49.524;8.536;2023-02-13T12:36:23;102545.78;;;8.85;50.92
64053;BME280;50299;49.524;8.536;2023-02-13T12:39:01;102540.59;;;8.94;55.95
64053;BME280;50299;49.524;8.536;2023-02-13T12:44:52;102525.19;;;9.76;48.86
64053;BME280;50299;49.524;8.536;2023-02-13T12:47:56;102527.16;;;10.01;49.74
64053;BME280;50299;49.524;8.536;2023-02-13T12:53:42;102513.03;;;10.44;47.77
64053;BME280;50299;49.524;8.536;2023-02-13T12:59:29;102516.38;;;9.95;46.05
64053;BME280;50299;49.524;8.536;2023-02-13T13:05:30;102502.78;;;10.59;49.25
64053;BME280;50299;49.524;8.536;2023-02-13T13:16:25;102494.00;;;10.01;50.06
64053;BME280;50299;49.524;8.536;2023-02-13T13:27:35;102491.53;;;10.05;51.79
64053;BME280;50299;49.524;8.536;2023-02-13T13:30:28;102489.28;;;10.22;49.38
64053;BME280;50299;49.524;8.536;2023-02-13T13:33:12;102483.22;;;9.84;47.00
64053;BME280;50299;49.524;8.536;2023-02-13T13:39:11;102475.69;;;9.59;47.55
64053;BME280;50299;49.524;8.536;2023-02-13T13:47:37;102482.56;;;10.69;44.45
64053;BME280;50299;49.524;8.536;2023-02-13T13:50:24;102471.25;;;10.66;45.13
64053;BME280;50299;49.524;8.536;2023-02-13T13:53:18;102469.38;;;10.46;44.37
64053;BME280;50299;49.524;8.536;2023-02-13T13:58:45;102470.50;;;9.99;44.79
64053;BME280;50299;49.524;8.536;2023-02-13T14:01:29;102469.34;;;10.61;44.71
64053;BME280;50299;49.524;8.536;2023-02-13T14:11:53;102453.34;;;10.38;42.97
64053;BME280;50299;49.524;8.536;2023-02-13T14:17:03;102446.56;;;10.95;42.43
64053;BME280;50299;49.524;8.536;2023-02-13T14:19:50;102449.22;;;11.20;42.69
64053;BME280;50299;49.524;8.536;2023-02-13T14:22:30;102449.78;;;11.17;42.34
64053;BME280;50299;49.524;8.536;2023-02-13T14:25:05;102444.25;;;11.12;41.84
64053;BME280;50299;49.524;8.536;2023-02-13T14:27:40;102444.56;;;11.05;41.36
64053;BME280;50299;49.524;8.536;2023-02-13T14:30:31;102444.69;;;11.79;45.85
64053;BME280;50299;49.524;8.536;2023-02-13T14:33:19;102440.34;;;11.63;40.17
64053;BME280;50299;49.524;8.536;2023-02-13T14:36:00;102446.72;;;11.63;41.63
64053;BME280;50299;49.524;8.536;2023-02-13T14:38:42;102447.97;;;12.15;44.74
64053;BME280;50299;49.524;8.536;2023-02-13T14:41:44;102441.66;;;12.68;38.32
64053;BME280;50299;49.524;8.536;2023-02-13T14:44:22;102447.97;;;12.15;38.76
64053;BME280;50299;49.524;8.536;2023-02-13T14:46:57;102439.03;;;11.94;40.20
64053;BME280;50299;49.524;8.536;2023-02-13T14:49:34;102441.88;;;12.71;41.22
64053;BME280;50299;49.524;8.536;2023-02-13T14:54:48;102435.47;;;12.95;44.35
64053;BME280;50299;49.524;8.536;2023-02-13T14:57:26;102435.84;;;13.07;37.28
64053;BME280;50299;49.524;8.536;2023-02-13T14:59:57;102433.25;;;13.35;38.74
64053;BME280;50299;49.524;8.536;2023-02-13T15:02:34;102430.06;;;13.03;37.14
64053;BME280;50299;49.524;8.536;2023-02-13T15:05:29;102431.06;;;13.31;39.51
64053;BME280;50299;49.524;8.536;2023-02-13T15:08:13;102428.16;;;13.61;38.84
64053;BME280;50299;49.524;8.536;2023-02-13T15:10:43;102435.44;;;13.56;37.38
64053;BME280;50299;49.524;8.536;2023-02-13T15:13:32;102427.41;;;13.74;38.11
64053;BME280;50299;49.524;8.536;2023-02-13T15:16:09;102430.19;;;13.55;35.02